Home > Products > Valid Products > MTR

000
SAUS43 KBIS 070954
MTRN60
METAR KN60 070952Z AUTO 29019G28KT 01/M07 A2973 RMK AO1 PK WND
29028/0913 SLP081 T00111067





000
SAUS43 KBIS 070854
MTRN60
METAR KN60 070852Z AUTO 28017G24KT 01/M06 A2975 RMK AO1 PK WND
28027/0834 SLP087 T00111056 51013





000
SAUS43 KBIS 070854
MTRN60
METAR KN60 070852Z AUTO 28017G24KT 01/M06 A2975 RMK AO1 PK WND
28027/0834 SLP087 T00111056 51013





000
SAUS43 KBIS 070754
MTRN60
METAR KN60 070752Z AUTO 28021KT 02/M04 A2974 RMK AO1 PK WND
28033/0728 SLP086 T00171044





000
SAUS43 KBIS 070653
MTRN60
METAR KN60 070652Z AUTO 29017KT 02/M05 A2973 RMK AO1 PK WND
30030/0613 SLP082 T00171050





000
SAUS43 KBIS 070653
MTRN60
METAR KN60 070652Z AUTO 29017KT 02/M05 A2973 RMK AO1 PK WND
30030/0613 SLP082 T00171050





000
SAUS43 KBIS 070554
MTRN60
METAR KN60 070552Z AUTO 30022G30KT 02/M06 A2971 RMK AO1 PK WND
30037/0523 SLP074 T00221061 10072 20022 401061061 51014





000
SAUS43 KBIS 070554
MTRN60
METAR KN60 070552Z AUTO 30022G30KT 02/M06 A2971 RMK AO1 PK WND
30037/0523 SLP074 T00221061 10072 20022 401061061 51014





000
SAUS43 KBIS 070454
MTRN60
METAR KN60 070452Z AUTO 30029G38KT 03/M06 A2969 RMK AO1 PK WND
29040/0416 SLP071 T00281061





000
SAUS43 KBIS 070454
MTRN60
METAR KN60 070452Z AUTO 30029G38KT 03/M06 A2969 RMK AO1 PK WND
29040/0416 SLP071 T00281061





000
SAUS43 KBIS 070354
MTRN60
METAR KN60 070352Z AUTO 30024G37KT 03/M03 A2969 RMK AO1 PK WND
30037/0350 SLP069 T00331028





000
SAUS43 KBIS 070254
MTRN60
METAR KN60 070252Z AUTO 29023G36KT 04/00 A2966 RMK AO1 PK WND
29040/0153 SLP060 T00390000 53014





000
SAUS43 KBIS 070254
MTRN60
METAR KN60 070252Z AUTO 29023G36KT 04/00 A2966 RMK AO1 PK WND
29040/0153 SLP060 T00390000 53014





000
SAUS43 KBIS 070154
MTRN60
METAR KN60 070152Z AUTO 29030G45KT 04/01 A2965 RMK AO1 PK WND
28045/0148 SLP058 T00440006





000
SAUS43 KBIS 070154
MTRN60
METAR KN60 070152Z AUTO 29030G45KT 04/01 A2965 RMK AO1 PK WND
28045/0148 SLP058 T00440006





000
SAUS43 KBIS 070054
MTRN60
METAR KN60 070052Z AUTO 28025G34KT 07/M04 A2962 RMK AO1 PK WND
28034/0052 SLP047 T00721039





000
SAUS43 KBIS 070054
MTRN60
METAR KN60 070052Z AUTO 28025G34KT 07/M04 A2962 RMK AO1 PK WND
28034/0052 SLP047 T00721039





000
SAUS43 KBIS 062353
MTRN60
METAR KN60 062352Z AUTO 28020G27KT 07/M05 A2962 RMK AO1 PK WND
28032/2325 SLP045 T00721050 10106 20061 56012





000
SAUS43 KBIS 062353
MTRN60
METAR KN60 062352Z AUTO 28020G27KT 07/M05 A2962 RMK AO1 PK WND
28032/2325 SLP045 T00721050 10106 20061 56012





000
SAUS43 KBIS 062253
MTRN60
METAR KN60 062252Z AUTO 29018G29KT 09/M04 A2962 RMK AO1 PK WND
29041/2156 SLP045 T00891044





000
SAUS43 KBIS 062154
MTRN60
METAR KN60 062152Z AUTO 28024G35KT 11/M04 A2964 RMK AO1 PK WND
28044/2059 SLP051 T01061039





000
SAUS43 KBIS 062154
MTRN60
METAR KN60 062152Z AUTO 28024G35KT 11/M04 A2964 RMK AO1 PK WND
28044/2059 SLP051 T01061039





000
SAUS43 KBIS 062054
MTRN60
METAR KN60 062052Z AUTO 29017G40KT 09/M03 A2965 RMK AO1 PK WND
29040/2045 SLP057 T00891033 55013





000
SAUS43 KBIS 061954
MTRN60
METAR KN60 061952Z AUTO 25014KT 08/M03 A2964 RMK AO1 SLP054
T00831028





000
SAUS43 KBIS 061853
MTRN60
METAR KN60 061852Z AUTO 25015KT 08/M03 A2966 RMK AO1 SLP065
T00781028





000
SAUS43 KBIS 061853
MTRN60
METAR KN60 061852Z AUTO 25015KT 08/M03 A2966 RMK AO1 SLP065
T00781028





000
SAUS43 KBIS 061754
MTRN60
METAR KN60 061752Z AUTO 25016KT 06/M03 A2969 RMK AO1 SLP075
T00611033 10061 21011 56016





000
SAUS43 KBIS 061754
MTRN60
METAR KN60 061752Z AUTO 25016KT 06/M03 A2969 RMK AO1 SLP075
T00611033 10061 21011 56016





000
SAUS43 KBIS 061653
MTRN60
METAR KN60 061652Z AUTO 25017G23KT 05/M03 A2971 RMK AO1 SLP080
T00501033





000
SAUS43 KBIS 061653
MTRN60
METAR KN60 061652Z AUTO 25017G23KT 05/M03 A2971 RMK AO1 SLP080
T00501033





000
SAUS43 KBIS 061554
MTRN60
METAR KN60 061552Z AUTO 25015KT 04/M03 A2970 RMK AO1 SLP080
T00391033





000
SAUS43 KBIS 061453
MTRN60
METAR KN60 061452Z AUTO 25012KT 03/M03 A2974 RMK AO1 SLP093
T00281028 56017





000
SAUS43 KBIS 061354
MTRN60
METAR KN60 061352Z AUTO 24010KT 01/M03 A2975 RMK AO1 SLP099
T00111033





000
SAUS43 KBIS 061253
MTRN60
METAR KN60 061252Z AUTO 24005KT M01/M04 A2978 RMK AO1 SLP110
T10061044





000
SAUS43 KBIS 061154
MTRN60
METAR KN60 061152Z AUTO 24010KT M01/M04 A2980 RMK AO1 SLP112
T10061044 11006 21061 56022





000
SAUS43 KBIS 061154
MTRN60
METAR KN60 061152Z AUTO 24010KT M01/M04 A2980 RMK AO1 SLP112
T10061044 11006 21061 56022





000
SAUS43 KBIS 061053
MTRN60
METAR KN60 061052Z AUTO 24009KT M01/M04 A2981 RMK AO1 SLP114
T10061044





000
SAUS43 KBIS 061053
MTRN60
METAR KN60 061052Z AUTO 24009KT M01/M04 A2981 RMK AO1 SLP114
T10061044





000
SAUS43 KBIS 060954
MTRN60
METAR KN60 060952Z AUTO 00000KT M03/M06 A2984 RMK AO1 SLP126
T10281056





000
SAUS43 KBIS 060954
MTRN60
METAR KN60 060952Z AUTO 00000KT M03/M06 A2984 RMK AO1 SLP126
T10281056





000
SAUS43 KBIS 060854
MTRN60
METAR KN60 060852Z AUTO 23006KT M03/M06 A2987 RMK AO1 SLP135
T10281056 58026





000
SAUS43 KBIS 060854
MTRN60
METAR KN60 060852Z AUTO 23006KT M03/M06 A2987 RMK AO1 SLP135
T10281056 58026





000
SAUS43 KBIS 060754
MTRN60
METAR KN60 060752Z AUTO 23006KT M04/M06 A2989 RMK AO1 SLP146
T10391061





000
SAUS43 KBIS 060653
MTRN60
METAR KN60 060652Z AUTO 18004KT M06/M07 A2992 RMK AO1 SLP159
T10561072





000
SAUS43 KBIS 060653
MTRN60
METAR KN60 060652Z AUTO 18004KT M06/M07 A2992 RMK AO1 SLP159
T10561072





000
SAUS43 KBIS 060554
MTRN60
METAR KN60 060552Z AUTO 18004KT M05/M07 A2995 RMK AO1 SLP168
T10501067 10006 21056 400391078 58023





000
SAUS43 KBIS 060554
MTRN60
METAR KN60 060552Z AUTO 18004KT M05/M07 A2995 RMK AO1 SLP168
T10501067 10006 21056 400391078 58023





000
SAUS43 KBIS 060454
MTRN60
METAR KN60 060452Z AUTO 18004KT M04/M07 A2998 RMK AO1 SLP180
T10441067





000
SAUS43 KBIS 060354
MTRN60
METAR KN60 060352Z AUTO 22003KT M04/M06 A3001 RMK AO1 SLP192
T10391061





000
SAUS43 KBIS 060253
MTRN60
METAR KN60 060252Z AUTO 00000KT M03/M06 A3002 RMK AO1 SLP197
T10331061 58012





000
SAUS43 KBIS 060253
MTRN60
METAR KN60 060252Z AUTO 00000KT M03/M06 A3002 RMK AO1 SLP197
T10331061 58012





000
SAUS43 KBIS 060154
MTRN60
METAR KN60 060152Z AUTO 20004KT M03/M07 A3003 RMK AO1 SLP201
T10331067





000
SAUS43 KBIS 060154
MTRN60
METAR KN60 060152Z AUTO 20004KT M03/M07 A3003 RMK AO1 SLP201
T10331067





000
SAUS43 KBIS 060053
MTRN60
METAR KN60 060052Z AUTO 25007KT M03/M07 A3006 RMK AO1 SLP209
T10331067





000
SAUS43 KBIS 060053
MTRN60
METAR KN60 060052Z AUTO 25007KT M03/M07 A3006 RMK AO1 SLP209
T10331067





000
SAUS43 KBIS 052353
MTRN60
METAR KN60 052352Z AUTO 25005KT 00/M06 A3006 RMK AO1 SLP207
T00001061 10039 21006 58012





000
SAUS43 KBIS 052353
MTRN60
METAR KN60 052352Z AUTO 25005KT 00/M06 A3006 RMK AO1 SLP207
T00001061 10039 21006 58012





000
SAUS43 KBIS 052253
MTRN60
METAR KN60 052252Z AUTO 27010KT 03/M06 A3007 RMK AO1 SLP208
T00331056





000
SAUS43 KBIS 052253
MTRN60
METAR KN60 052252Z AUTO 27010KT 03/M06 A3007 RMK AO1 SLP208
T00331056





000
SAUS43 KBIS 052154
MTRN60
METAR KN60 052152Z AUTO 28011KT 04/M06 A3008 RMK AO1 SLP211
T00391061





000
SAUS43 KBIS 052054
MTRN60
METAR KN60 052052Z AUTO 28014KT 03/M06 A3009 RMK AO1 SLP214
T00331056 56019





000
SAUS43 KBIS 051954
MTRN60
METAR KN60 051952Z AUTO 26013KT 02/M07 A3011 RMK AO1 SLP221
T00221067





000
SAUS43 KBIS 051853
MTRN60
METAR KN60 051852Z AUTO 25013KT 01/M08 A3012 RMK AO1 SLP225
T00061083





000
SAUS43 KBIS 051853
MTRN60
METAR KN60 051852Z AUTO 25013KT 01/M08 A3012 RMK AO1 SLP225
T00061083





000
SAUS43 KBIS 051754
MTRN60
METAR KN60 051752Z AUTO 28012KT M01/M10 A3015 RMK AO1 SLP236
T10111100 11011 21078 55003





000
SAUS43 KBIS 051754
MTRN60
METAR KN60 051752Z AUTO 28012KT M01/M10 A3015 RMK AO1 SLP236
T10111100 11011 21078 55003





000
SAUS43 KBIS 051653
MTRN60
METAR KN60 051652Z AUTO 27011KT M03/M08 A3015 RMK AO1 SLP238
T10331083





000
SAUS43 KBIS 051653
MTRN60
METAR KN60 051652Z AUTO 27011KT M03/M08 A3015 RMK AO1 SLP238
T10331083





000
SAUS43 KBIS 051554
MTRN60
METAR KN60 051552Z AUTO 27007KT M05/M08 A3016 RMK AO1 SLP242
T10501083





000
SAUS43 KBIS 051554
MTRN60
METAR KN60 051552Z AUTO 27007KT M05/M08 A3016 RMK AO1 SLP242
T10501083





000
SAUS43 KBIS 051454
MTRN60
METAR KN60 051452Z AUTO 30008KT M07/M09 A3016 RMK AO1 SLP246
T10721094 51018





000
SAUS43 KBIS 051354
MTRN60
METAR KN60 051352Z AUTO 33008KT M07/M09 A3014 RMK AO1 SLP239
T10721094





000
SAUS43 KBIS 051354
MTRN60
METAR KN60 051352Z AUTO 33008KT M07/M09 A3014 RMK AO1 SLP239
T10721094





000
SAUS43 KBIS 051253
MTRN60
METAR KN60 051252Z AUTO 33008KT M07/M09 A3013 RMK AO1 SLP232
T10721089





000
SAUS43 KBIS 051253
MTRN60
METAR KN60 051252Z AUTO 33008KT M07/M09 A3013 RMK AO1 SLP232
T10721089





000
SAUS43 KBIS 051154
MTRN60
METAR KN60 051152Z AUTO 31009KT M07/M08 A3010 RMK AO1 SLP223
T10671083 11011 21067 53021





000
SAUS43 KBIS 051154
MTRN60
METAR KN60 051152Z AUTO 31009KT M07/M08 A3010 RMK AO1 SLP223
T10671083 11011 21067 53021





000
SAUS43 KBIS 051053
MTRN60
METAR KN60 051052Z AUTO 31009KT M04/M07 A3008 RMK AO1 SLP214
T10441072





000
SAUS43 KBIS 050954
MTRN60
METAR KN60 050952Z AUTO 32005KT M04/M07 A3005 RMK AO1 SLP202
T10391067





000
SAUS43 KBIS 050854
MTRN60
METAR KN60 050852Z AUTO 32008KT M04/M06 A3004 RMK AO1 SLP199
T10391061 53010





000
SAUS43 KBIS 050754
MTRN60
METAR KN60 050752Z AUTO 31006KT M02/M04 A3002 RMK AO1 SLP194
T10221044





000
SAUS43 KBIS 050653
MTRN60
METAR KN60 050652Z AUTO 29007KT M01/M06 A3002 RMK AO1 SLP192
T10111056





000
SAUS43 KBIS 050653
MTRN60
METAR KN60 050652Z AUTO 29007KT M01/M06 A3002 RMK AO1 SLP192
T10111056





000
SAUS43 KBIS 050554
MTRN60
METAR KN60 050552Z AUTO 27008KT M02/M07 A3001 RMK AO1 SLP189
T10171067 11011 21044 400061083 53010





000
SAUS43 KBIS 050554
MTRN60
METAR KN60 050552Z AUTO 27008KT M02/M07 A3001 RMK AO1 SLP189
T10171067 11011 21044 400061083 53010





000
SAUS43 KBIS 050454
MTRN60
METAR KN60 050452Z AUTO 29005KT M02/M07 A2999 RMK AO1 SLP186
T10221067





000
SAUS43 KBIS 050354
MTRN60
METAR KN60 050352Z AUTO 00000KT M03/M08 A2999 RMK AO1 SLP184
T10331078





000
SAUS43 KBIS 050254
MTRN60
METAR KN60 050252Z AUTO 15003KT M04/M08 A2998 RMK AO1 SLP182
T10441083 56003





000
SAUS43 KBIS 050154
MTRN60
METAR KN60 050152Z AUTO 11004KT M04/M08 A2998 RMK AO1 SLP183
T10391083





000
SAUS43 KBIS 050154
MTRN60
METAR KN60 050152Z AUTO 11004KT M04/M08 A2998 RMK AO1 SLP183
T10391083





000
SAUS43 KBIS 050053
MTRN60
METAR KN60 050052Z AUTO 00000KT M02/M09 A2998 RMK AO1 SLP181
T10221089





000
SAUS43 KBIS 050053
MTRN60
METAR KN60 050052Z AUTO 00000KT M02/M09 A2998 RMK AO1 SLP181
T10221089





000
SAUS43 KBIS 042353
MTRN60
METAR KN60 042352Z AUTO 12003KT M01/M09 A2998 RMK AO1 SLP182
T10111089 10006 21044 56009





000
SAUS43 KBIS 042353
MTRN60
METAR KN60 042352Z AUTO 12003KT M01/M09 A2998 RMK AO1 SLP182
T10111089 10006 21044 56009





000
SAUS43 KBIS 042253
MTRN60
METAR KN60 042252Z AUTO 14004KT 01/M09 A2999 RMK AO1 SLP182
T00061094





000
SAUS43 KBIS 042253
MTRN60
METAR KN60 042252Z AUTO 14004KT 01/M09 A2999 RMK AO1 SLP182
T00061094





000
SAUS43 KBIS 042154
MTRN60
METAR KN60 042152Z AUTO 15005KT M01/M09 A3000 RMK AO1 SLP187
T10061089





000
SAUS43 KBIS 042053
MTRN60
METAR KN60 042052Z AUTO 15008KT M01/M09 A3001 RMK AO1 SLP191
T10111089 58022





000
SAUS43 KBIS 041954
MTRN60
METAR KN60 041952Z AUTO 20008KT M02/M08 A3004 RMK AO1 SLP201
T10221083





000
SAUS43 KBIS 041854
MTRN60
METAR KN60 041852Z AUTO 18007KT M03/M09 A3006 RMK AO1 SLP210
T10331094





000
SAUS43 KBIS 041854
MTRN60
METAR KN60 041852Z AUTO 18007KT M03/M09 A3006 RMK AO1 SLP210
T10331094





000
SAUS43 KBIS 041754
MTRN60
METAR KN60 041752Z AUTO 18007KT M04/M09 A3008 RMK AO1 SLP219
T10441094 11044 21083 58002





000
SAUS43 KBIS 041653
MTRN60
METAR KN60 041652Z AUTO 22008KT M06/M10 A3010 RMK AO1 SLP225
T10611100





000
SAUS43 KBIS 041558 COR
MTRN60
METAR KN60 041552Z AUTO 22003KT M06/M10 A3009 RMK AO1 SLP222
T10611100





000
SAUS43 KBIS 041453
MTRN60
METAR KN60 041452Z AUTO 35005KT M07/M10 A3009 RMK AO1 SLP220
T10671100 53006





000
SAUS43 KBIS 041354
MTRN60
METAR KN60 041352Z AUTO 30006KT M07/M11 A3009 RMK AO1 SLP220
T10721106





000
SAUS43 KBIS 041253
MTRN60
METAR KN60 041252Z AUTO 35009KT M07/M11 A3006 RMK AO1 SLP211
T10721106





000
SAUS43 KBIS 041154
MTRN60
METAR KN60 041152Z AUTO 32009KT M07/M11 A3007 RMK AO1 SLP213 70002
T10721106 11061 21072 53007





000
SAUS43 KBIS 041154
MTRN60
METAR KN60 041152Z AUTO 32009KT M07/M11 A3007 RMK AO1 SLP213 70002
T10721106 11061 21072 53007





000
SAUS43 KBIS 041053
MTRN60
METAR KN60 041052Z AUTO 31010KT M07/M10 A3006 RMK AO1 SLP207
T10671100





000
SAUS43 KBIS 041053
MTRN60
METAR KN60 041052Z AUTO 31010KT M07/M10 A3006 RMK AO1 SLP207
T10671100





    US Dept of Commerce
    National Oceanic and Atmospheric Administration
    National Weather Service
    1325 East West Highway
    Silver Spring, MD 20910
    Page Author: NWS Internet Services Team
Disclaimer
Information Quality
Credits
Glossary
Privacy Policy
Freedom of Information Act (FOIA)
About Us
Career Opportunities